• Join FlightAware (Why Join?)
  • Login
  • US Flag 
02:59PM EDT


 

Airport Tracker/Info


-or-


 

Live Flight TrackerFlight Track Log ✈ AZU2487 ✈ 22-Jun-2014 ✈ SBBH / PLU - SBGR / GRU

Flight Track Log - Related Links

Times and Time Zones

All times are in EDT time to prevent confusion due to time zone crossing. See the AZU2487 flight status page for this flight to view local times or setup timezone preferences in your user account.

Time Position Orientation Groundspeed Altitude Reporting Facility
EDT Latitude Longitude Course Direction KTS MPH feet Rate Location/Type
11:45AM -21.1850 -45.3540 215° Southwest 246 283 18,000  Level FlightAware ADS-B (SDAM)
11:46AM -21.2181 -45.3781 215° Southwest 246 283 18,000  Level FlightAware ADS-B (SDAM)
11:47AM -21.3158 -45.4490 215° Southwest 246 283 18,000  Level FlightAware ADS-B (SDAM)
11:48AM -21.3449 -45.4703 215° Southwest 248 285 18,000  Level FlightAware ADS-B (SDAM)
11:48AM -21.3701 -45.4885 215° Southwest 249 287 18,000  Level FlightAware ADS-B (SDAM)
11:48AM -21.3860 -45.5002 215° Southwest 248 285 18,000  Level FlightAware ADS-B (SDAM)
11:50AM -21.4612 -45.5551 215° Southwest 250 288 18,000  Level FlightAware ADS-B (SDAM)
11:50AM -21.4853 -45.5726 215° Southwest 251 289 18,000  Level FlightAware ADS-B (SDAM)
11:51AM -21.5189 -45.5971 215° Southwest 251 289 18,000  Level FlightAware ADS-B (SDAM)
11:51AM -21.5444 -45.6157 215° Southwest 251 289 18,000  Level FlightAware ADS-B (SDAM)
11:52AM -21.5749 -45.6380 215° Southwest 253 291 18,000  Level FlightAware ADS-B (SDAM)
11:52AM -21.6070 -45.6616 215° Southwest 253 291 18,000  Level FlightAware ADS-B (SDAM)
11:53AM -21.6360 -45.6827 215° Southwest 253 291 18,000  Level FlightAware ADS-B (SDAM)
11:53AM -21.6505 -45.6933 215° Southwest 253 291 18,000  Level FlightAware ADS-B (SDAM)
11:54AM -21.6910 -45.7230 215° Southwest 253 291 18,000  Level FlightAware ADS-B (SDAM)
11:54AM -21.7243 -45.7473 215° Southwest 253 291 18,000  Level FlightAware ADS-B (SDAM)
11:55AM -21.7521 -45.7677 215° Southwest 253 291 18,000  Level FlightAware ADS-B (SDAM)
11:55AM -21.7793 -45.7876 215° Southwest 252 290 18,000  Level FlightAware ADS-B (SDAM)
11:56AM -21.8081 -45.8088 215° Southwest 252 290 18,000  Level FlightAware ADS-B (SDAM)
11:56AM -21.8389 -45.8315 215° Southwest 251 289 18,000  Level FlightAware ADS-B (SDAM)
11:57AM -21.8920 -45.8728 217° Southwest 251 289 18,000  Level FlightAware ADS-B (SDAM)
11:58AM -21.9206 -45.8956 217° Southwest 252 290 18,000  Level FlightAware ADS-B (SDAM)
11:58AM -21.9468 -45.9165 217° Southwest 253 291 18,000  Level FlightAware ADS-B (SDAM)
11:59AM -21.9776 -45.9411 217° Southwest 253 291 18,000  Level FlightAware ADS-B (SDAM)
11:59AM -22.0062 -45.9638 217° Southwest 253 291 18,000  Level FlightAware ADS-B (SDAM)
12:00PM -22.0336 -45.9857 217° Southwest 253 291 18,000  Level FlightAware ADS-B (SDAM)
12:00PM -22.0627 -46.0088 217° Southwest 253 291 18,000  Level FlightAware ADS-B (SDAM)
12:01PM -22.0893 -46.0301 217° Southwest 254 292 18,000  Level FlightAware ADS-B (SDAM)
12:01PM -22.1194 -46.0541 217° Southwest 254 292 18,000  Level FlightAware ADS-B (SDAM)
12:02PM -22.1483 -46.0772 217° Southwest 253 291 18,000  Level FlightAware ADS-B (SDAM)
12:02PM -22.1762 -46.0994 217° Southwest 253 291 18,000  Level FlightAware ADS-B (SDAM)
12:03PM -22.2045 -46.1220 217° Southwest 252 290 18,000  Level FlightAware ADS-B (SDAM)
12:03PM -22.2332 -46.1449 217° Southwest 253 291 18,000  Level FlightAware ADS-B (SDAM)
12:04PM -22.2611 -46.1673 217° Southwest 253 291 18,000  Level FlightAware ADS-B (SDAM)
12:04PM -22.2896 -46.1901 217° Southwest 253 291 18,000  Level FlightAware ADS-B (SDAM)
12:05PM -22.3178 -46.2127 217° Southwest 254 292 18,000  Level FlightAware ADS-B (SDAM)
12:05PM -22.3459 -46.2353 217° Southwest 254 292 18,000  Level FlightAware ADS-B (SDAM)
12:06PM -22.3751 -46.2586 217° Southwest 253 291 18,000  Level FlightAware ADS-B (SDAM)
12:06PM -22.4035 -46.2809 213° Southwest 256 295 18,000  Level FlightAware ADS-B (SDAM)
12:06PM -22.4138 -46.2860 198° South 261 300 18,000  Level FlightAware ADS-B (SDAM)
12:07PM -22.4264 -46.2885 184° South 265 305 18,000  Level FlightAware ADS-B (SDAM)
12:07PM -22.4766 -46.2880 178° South 267 307 18,000  Level FlightAware ADS-B (SDAM)
12:08PM -22.5135 -46.2873 179° South 268 308 18,000  Level FlightAware ADS-B (SDAM)
12:08PM -22.5512 -46.2867 179° South 267 307 18,000  Level FlightAware ADS-B (SDAM)
12:09PM -22.5883 -46.2861 179° South 268 308 18,000  Level FlightAware ADS-B (SDAM)
12:09PM -22.6257 -46.2855 179° South 269 310 18,000  Level FlightAware ADS-B (SDAM)
12:10PM -22.6610 -46.2849 179° South 270 311 18,000  Level FlightAware ADS-B (SDAM)
12:10PM -22.7011 -46.2842 179° South 271 312 18,000  Level FlightAware ADS-B (SDAM)
12:11PM -22.7389 -46.2836 179° South 272 313 18,000  Level FlightAware ADS-B (SDAM)
12:11PM -22.7772 -46.2830 179° South 272 313 18,000  Level FlightAware ADS-B (SDAM)
12:12PM -22.8147 -46.2823 179° South 273 314 18,000  Level FlightAware ADS-B (SDAM)
12:12PM -22.8529 -46.2817 179° South 273 314 18,000  Level FlightAware ADS-B (SDAM)
12:13PM -22.8913 -46.2812 179° South 275 316 18,000  Level FlightAware ADS-B (SDAM)
12:13PM -22.9295 -46.2806 179° South 274 315 18,000  Level FlightAware ADS-B (SDAM)
12:14PM -22.9681 -46.2800 179° South 275 316 18,000 -420 Level FlightAware ADS-B (SDAM)
12:14PM -23.0067 -46.2794 179° South 289 333 17,600 -1,200 Descending FlightAware ADS-B (SDAM)
12:15PM -23.0486 -46.2788 179° South 304 350 16,800 -1,680 Descending FlightAware ADS-B (SDAM)
12:15PM -23.0907 -46.2782 179° South 297 342 15,900 -1,860 Descending FlightAware ADS-B (SDAM)
12:16PM -23.1310 -46.2775 179° South 280 322 15,000 -1,860 Descending FlightAware ADS-B (SDAM)
12:16PM -23.1681 -46.2769 179° South 266 306 14,100 -1,800 Descending FlightAware ADS-B (SDAM)
12:17PM -23.2056 -46.2763 179° South 257 296 13,200 -1,800 Descending FlightAware ADS-B (SDAM)
12:17PM -23.2418 -46.2757 179° South 263 303 12,300 -1,800 Descending FlightAware ADS-B (SDAM)
12:17PM -23.2531 -46.2761 187° South 263 303 12,000 -1,920 Descending FlightAware ADS-B (SDAM)
12:18PM -23.2650 -46.2804 200° South 263 303 11,700 -1,860 Descending FlightAware ADS-B (SDAM)
12:18PM -23.2679 -46.2822 210° Southwest 263 303 11,600 -1,800 Descending FlightAware ADS-B (SBSP / CGH)
12:18PM -23.2742 -46.2880 228° Southwest 261 300 11,400 -1,440 Descending FlightAware ADS-B (SDAM)
12:18PM -23.2809 -46.2991 247° West 256 295 11,200 -480 Descending FlightAware ADS-B (SDAM)
12:18PM -23.2926 -46.3360 253° West 256 295 11,100 -240 Descending FlightAware ADS-B (SDAM)
12:19PM -23.3031 -46.3731 253° West 260 299 11,000 -300 Descending FlightAware ADS-B (SDAM)
12:20PM -23.3181 -46.4242 253° West 267 307 10,800 -360 Descending FlightAware ADS-B (SDAM)
12:20PM -23.3294 -46.4625 253° West 272 313 10,600 -720 Descending FlightAware ADS-B (SDAM)
12:21PM -23.3408 -46.5016 253° West 274 315 10,100 -1,140 Descending FlightAware ADS-B (SDAM)
12:21PM -23.3467 -46.5216 253° West 266 306 9,800 -1,200 Descending FlightAware ADS-B (SDAM)
12:21PM -23.3523 -46.5407 253° West 253 291 9,500 -1,200 Descending FlightAware ADS-B (SDAM)
12:21PM -23.3574 -46.5577 252° West 245 282 9,200 -1,020 Descending FlightAware ADS-B (SDAM)
12:22PM -23.3628 -46.5757 253° West 237 273 9,000 -1,020 Descending FlightAware ADS-B (SDAM)
12:22PM -23.3677 -46.5921 253° West 228 262 8,700 -1,440 Descending FlightAware ADS-B (SDAM)
12:22PM -23.3726 -46.6086 253° West 223 257 8,300 -1,380 Descending FlightAware ADS-B (SDAM)
12:22PM -23.3775 -46.6251 253° West 221 254 8,000 -1,200 Descending FlightAware ADS-B (SDAM)
12:23PM -23.3822 -46.6410 253° West 218 251 7,700 -1,440 Descending FlightAware ADS-B (SDAM)
12:23PM -23.3869 -46.6568 253° West 216 249 7,300 -1,680 Descending FlightAware ADS-B (SDAM)
12:23PM -23.3893 -46.6645 249° West 215 247 7,100 -1,500 Descending FlightAware ADS-B (SBSP / CGH)
12:23PM -23.3916 -46.6694 240° Southwest 215 247 7,000 -1,200 Descending FlightAware ADS-B (SBSP / CGH)
12:23PM -23.3943 -46.6735 229° Southwest 216 249 6,900 -1,200 Descending FlightAware ADS-B (SBSP / CGH)
12:23PM -23.3983 -46.6774 218° Southwest 215 247 6,800 -1,200 Descending FlightAware ADS-B (SBSP / CGH)
12:23PM -23.4013 -46.6794 208° Southwest 215 247 6,700 -1,200 Descending FlightAware ADS-B (SBSP / CGH)
12:23PM -23.4072 -46.6820 197° South 213 245 6,600 -1,200 Descending FlightAware ADS-B (SBSP / CGH)
12:23PM -23.4117 -46.6830 186° South 212 244 6,500 -1,140 Descending FlightAware ADS-B (SBSP / CGH)
12:24PM -23.4175 -46.6828 173° South 213 245 6,400 -600 Descending FlightAware ADS-B (SBSP / CGH)
12:24PM -23.4214 -46.6820 167° South 213 245 6,400 -960 Level FlightAware ADS-B (SBSP / CGH)
12:24PM -23.4368 -46.6778 165° South 215 247 6,100 -1,200 Descending FlightAware ADS-B (SBSP / CGH)
12:24PM -23.4512 -46.6737 165° South 218 251 5,800 -1,080 Descending FlightAware ADS-B (SBSP / CGH)
12:24PM -23.4603 -46.6711 162° South 219 252 5,600 -900 Descending FlightAware ADS-B (SDAM)
12:24PM -23.4643 -46.6697 161° South 219 252 5,600 -900 Level FlightAware ADS-B (SDAM)
12:24PM -23.4706 -46.6663 146° Southeast 220 253 5,500 -1,140 Descending FlightAware ADS-B (SBSP / CGH)
12:25PM -23.4741 -46.6631 134° Southeast 220 253 5,400 -1,200 Descending FlightAware ADS-B (SBSP / CGH)
12:25PM -23.4776 -46.6581 123° Southeast 219 252 5,300 -1,200 Descending FlightAware ADS-B (SBSP / CGH)
12:25PM -23.4798 -46.6532 111° Southeast 218 251 5,200 -1,200 Descending FlightAware ADS-B (SBSP / CGH)
12:25PM -23.4810 -46.6484 100° East 216 249 5,100 -1,200 Descending FlightAware ADS-B (SBSP / CGH)
12:25PM -23.4814 -46.6429 89° East 214 246 5,000 -1,200 Descending FlightAware ADS-B (SBSP / CGH)
12:25PM -23.4810 -46.6378 82° East 209 241 4,900 -600 Descending FlightAware ADS-B (SBSP / CGH)
12:25PM -23.4801 -46.6321 77° East 205 236 4,900 -900 Level FlightAware ADS-B (SBSP / CGH)
12:25PM -23.4763 -46.6179 72° East 196 226 4,600 -1,020 Descending FlightAware ADS-B (SBSP / CGH)
12:26PM -23.4721 -46.6036 70° East 187 215 4,400 -1,020 Descending FlightAware ADS-B (SBSP / CGH)
12:26PM -23.4676 -46.5911 68° East 181 208 4,100 -1,080 Descending FlightAware ADS-B (SBSP / CGH)
12:26PM -23.4635 -46.5784 72° East 169 194 3,900 -1,020 Descending FlightAware ADS-B (SBSP / CGH)
12:26PM -23.4602 -46.5666 73° East 159 183 3,600 -840 Descending FlightAware ADS-B (SBSP / CGH)
12:27PM -23.4573 -46.5558 74° East 141 162 3,500 -600 Descending FlightAware ADS-B (SBSP / CGH)
12:27PM -23.4546 -46.5457 74° East 132 152 3,300 -840 Descending FlightAware ADS-B (SBSP / CGH)
12:27PM -23.4524 -46.5370 74° East 120 138 3,100 -840 Descending FlightAware ADS-B (SBSP / CGH)
12:27PM -23.4499 -46.5279 74° East 115 132 2,900 -600 Descending FlightAware ADS-B (SBSP / CGH)
12:28PM -23.4476 -46.5197 73° East 110 127 2,800 -420 Descending FlightAware ADS-B (SBSP / CGH)
12:28PM -23.4454 -46.5116 73° East 113 130 2,700 -420 Descending FlightAware ADS-B (SBSP / CGH)
12:30PM -23.4321 -46.4695 71° East  Level Estimated
12:31PM -23.4321 -46.4695 North  Level Estimated
12:32PM -23.4321 -46.4695 North  Level Estimated
12:33PM -23.4321 -46.4695 North  Level Estimated
12:34PM -23.4321 -46.4695 North  Level Estimated
12:35PM -23.4321 -46.4695 North  Level Estimated
12:36PM -23.4321 -46.4695 North  Level Estimated
12:37PM -23.4321 -46.4695 North  Level Estimated
12:38PM -23.4321 -46.4695 North  Level Estimated
12:39PM -23.4321 -46.4695 North  Level Estimated
12:40PM -23.4321 -46.4695 North  Level Estimated
12:41PM -23.4321 -46.4695 North  Level Estimated
12:42PM -23.4321 -46.4695 North  Level Estimated
12:43PM -23.4321 -46.4695 North  Level Estimated
12:44PM -23.4321 -46.4695 North  Level Estimated
12:45PM -23.4321 -46.4695 North  Level Estimated
12:46PM -23.4321 -46.4695 North  Level Estimated
12:47PM -23.4321 -46.4695 North  Level Estimated
12:48PM -23.4321 -46.4695 North  Level Estimated
12:49PM -23.4321 -46.4695 North  Level Estimated
12:50PM -23.4321 -46.4695 North  Level Estimated
12:51PM -23.4321 -46.4695 North  Level Estimated
12:52PM -23.4321 -46.4695 North  Level Estimated
12:53PM -23.4321 -46.4695 North  Level Estimated
12:54PM -23.4321 -46.4695 North  Level Estimated
12:55PM -23.4321 -46.4695 North  Level Estimated
12:56PM -23.4321 -46.4695 North  Level Estimated